createdAt,value
2022-11-09T18:25:41.960Z,8.50
2022-11-09T18:28:29.814Z,7.50
2022-11-09T18:31:17.172Z,7.68
2022-11-09T18:34:05.635Z,7.10
2022-11-09T18:36:54.152Z,7.78
2022-11-09T18:39:41.675Z,7.32
2022-11-09T18:42:29.102Z,7.68
2022-11-09T18:45:17.777Z,7.25
2022-11-09T18:48:05.204Z,8.90
2022-11-09T18:50:57.126Z,6.85
2022-11-09T18:53:45.655Z,7.22
2022-11-09T18:56:33.666Z,8.98
2022-11-09T18:59:20.950Z,7.50
2022-11-09T19:02:13.115Z,7.75
2022-11-09T19:05:00.557Z,7.50
2022-11-09T19:07:50.050Z,8.15
2022-11-09T19:10:38.741Z,9.02
2022-11-09T19:13:26.705Z,7.72
2022-11-09T19:16:14.854Z,9.55
2022-11-09T19:19:02.825Z,10.25
2022-11-09T19:21:54.876Z,9.02
2022-11-09T19:24:42.948Z,9.45
2022-11-09T19:27:30.677Z,11.05
2022-11-09T19:30:18.615Z,10.30
2022-11-09T19:33:07.096Z,10.80
2022-11-09T19:36:23.103Z,11.05
2022-11-09T19:39:02.376Z,9.65
2022-11-09T19:41:50.068Z,11.82
2022-11-09T19:44:37.330Z,9.48
2022-11-09T19:47:25.191Z,10.68
2022-11-09T19:50:12.310Z,11.05
2022-11-09T19:53:00.074Z,11.05
2022-11-09T19:55:47.187Z,10.25
2022-11-09T19:58:35.844Z,10.75
2022-11-09T20:01:23.362Z,9.43
2022-11-09T20:04:11.245Z,10.00
2022-11-09T20:06:58.401Z,9.77
2022-11-09T20:09:46.388Z,10.18
2022-11-09T20:12:52.077Z,9.75
2022-11-09T20:15:39.829Z,10.32
2022-11-09T20:18:26.718Z,9.80
2022-11-09T20:21:14.223Z,10.75
2022-11-09T20:24:01.569Z,10.90
2022-11-09T20:26:48.936Z,10.80
2022-11-09T20:29:36.666Z,10.15
2022-11-09T20:32:24.588Z,10.57
2022-11-09T20:35:12.637Z,9.65
2022-11-09T20:38:01.936Z,10.75
2022-11-09T20:40:58.840Z,9.98
2022-11-09T20:43:48.040Z,10.45
2022-11-09T20:46:36.847Z,11.20
2022-11-09T20:49:24.635Z,10.75
2022-11-09T20:52:12.015Z,10.13
2022-11-09T20:55:00.799Z,10.40
2022-11-09T20:57:48.576Z,10.48
2022-11-09T21:00:38.246Z,10.68
2022-11-09T21:03:28.326Z,11.10
2022-11-09T21:06:17.776Z,10.52
2022-11-09T21:09:05.938Z,11.02
2022-11-09T21:12:11.819Z,10.70
2022-11-09T21:14:59.247Z,10.77
2022-11-09T21:17:48.124Z,10.85
2022-11-09T21:20:36.016Z,10.57
2022-11-09T21:23:24.834Z,12.63
2022-11-09T21:26:30.654Z,11.48
2022-11-09T21:29:42.333Z,12.15
2022-11-09T21:32:30.967Z,12.35
2022-11-09T21:35:18.652Z,11.45
2022-11-09T21:38:05.668Z,12.20
2022-11-09T21:40:53.090Z,11.95
2022-11-09T21:43:40.271Z,12.10
2022-11-09T21:46:27.711Z,11.60
2022-11-09T21:49:14.830Z,11.18
2022-11-09T21:52:02.961Z,11.30
2022-11-09T21:54:50.253Z,12.98
2022-11-09T21:57:37.619Z,12.13
2022-11-09T22:00:24.840Z,12.27
2022-11-09T22:03:14.027Z,12.52
2022-11-09T22:06:01.231Z,14.68
2022-11-09T22:08:48.829Z,14.68
2022-11-09T22:11:54.481Z,13.30
2022-11-09T22:15:00.348Z,12.80
2022-11-09T22:17:48.639Z,12.45
2022-11-09T22:20:55.229Z,12.65
2022-11-09T22:23:42.659Z,12.88
2022-11-09T22:26:31.931Z,12.63
2022-11-09T22:29:19.199Z,12.23
2022-11-09T22:32:06.913Z,11.48
2022-11-09T22:34:54.020Z,10.98
2022-11-09T22:37:43.357Z,11.65
2022-11-09T22:40:30.588Z,12.27
2022-11-09T22:43:18.324Z,12.35
2022-11-09T22:46:14.682Z,11.63
2022-11-09T22:49:02.118Z,11.43
2022-11-09T22:51:49.072Z,11.55
2022-11-09T22:54:36.361Z,11.85
2022-11-09T22:57:23.538Z,11.30
2022-11-09T23:00:15.388Z,10.65
2022-11-09T23:03:02.317Z,11.57
2022-11-09T23:05:49.630Z,12.02
2022-11-09T23:08:38.108Z,11.80
2022-11-09T23:11:25.862Z,10.82
2022-11-09T23:14:13.201Z,12.15
2022-11-09T23:17:00.531Z,12.55
2022-11-09T23:19:47.753Z,12.10
2022-11-09T23:22:36.230Z,11.43
2022-11-09T23:25:41.803Z,9.98
2022-11-09T23:28:33.000Z,10.95
2022-11-09T23:31:24.543Z,10.80
2022-11-09T23:34:11.968Z,10.13
2022-11-09T23:36:59.311Z,9.48
2022-11-09T23:39:46.750Z,9.95
2022-11-09T23:42:33.640Z,10.15
2022-11-09T23:45:21.346Z,11.05
2022-11-09T23:48:17.049Z,9.50
2022-11-09T23:51:04.879Z,10.05
2022-11-09T23:53:52.156Z,10.00
2022-11-09T23:56:39.328Z,8.88
2022-11-09T23:59:26.519Z,10.23
